sensor_id;sensor_type;location;lat;lon;timestamp;P1;durP1;ratioP1;P2;durP2;ratioP2
69226;SDS011;56334;52.398;7.552;2023-04-06T00:01:07;10.25;;;4.40;;
69226;SDS011;56334;52.398;7.552;2023-04-06T00:03:35;11.45;;;4.53;;
69226;SDS011;56334;52.398;7.552;2023-04-06T00:06:01;11.25;;;4.88;;
69226;SDS011;56334;52.398;7.552;2023-04-06T00:08:27;11.10;;;4.40;;
69226;SDS011;56334;52.398;7.552;2023-04-06T00:10:53;11.55;;;5.15;;
69226;SDS011;56334;52.398;7.552;2023-04-06T00:13:20;11.40;;;4.25;;
69226;SDS011;56334;52.398;7.552;2023-04-06T00:15:46;11.93;;;4.65;;
69226;SDS011;56334;52.398;7.552;2023-04-06T00:18:12;14.68;;;5.40;;
69226;SDS011;56334;52.398;7.552;2023-04-06T00:20:38;11.70;;;4.93;;
69226;SDS011;56334;52.398;7.552;2023-04-06T00:23:04;12.63;;;5.07;;
69226;SDS011;56334;52.398;7.552;2023-04-06T00:25:30;11.85;;;5.18;;
69226;SDS011;56334;52.398;7.552;2023-04-06T00:27:56;13.23;;;5.28;;
69226;SDS011;56334;52.398;7.552;2023-04-06T00:30:22;13.98;;;5.28;;
69226;SDS011;56334;52.398;7.552;2023-04-06T00:32:50;12.43;;;4.95;;
69226;SDS011;56334;52.398;7.552;2023-04-06T00:35:16;11.85;;;5.18;;
69226;SDS011;56334;52.398;7.552;2023-04-06T00:37:42;12.40;;;5.10;;
69226;SDS011;56334;52.398;7.552;2023-04-06T00:40:09;11.65;;;4.82;;
69226;SDS011;56334;52.398;7.552;2023-04-06T00:42:35;11.45;;;4.72;;
69226;SDS011;56334;52.398;7.552;2023-04-06T00:45:01;12.23;;;5.03;;
69226;SDS011;56334;52.398;7.552;2023-04-06T00:47:28;12.38;;;4.38;;
69226;SDS011;56334;52.398;7.552;2023-04-06T00:49:54;14.07;;;5.47;;
69226;SDS011;56334;52.398;7.552;2023-04-06T00:52:21;12.55;;;5.47;;
69226;SDS011;56334;52.398;7.552;2023-04-06T00:54:47;12.50;;;4.60;;
69226;SDS011;56334;52.398;7.552;2023-04-06T00:57:13;11.75;;;4.85;;
69226;SDS011;56334;52.398;7.552;2023-04-06T00:59:39;14.48;;;5.95;;
69226;SDS011;56334;52.398;7.552;2023-04-06T01:02:06;12.50;;;5.30;;
69226;SDS011;56334;52.398;7.552;2023-04-06T01:04:33;14.82;;;5.25;;
69226;SDS011;56334;52.398;7.552;2023-04-06T01:06:59;12.82;;;5.45;;
69226;SDS011;56334;52.398;7.552;2023-04-06T01:09:29;13.70;;;5.72;;
69226;SDS011;56334;52.398;7.552;2023-04-06T01:11:55;13.93;;;6.30;;
69226;SDS011;56334;52.398;7.552;2023-04-06T01:14:23;13.07;;;4.80;;
69226;SDS011;56334;52.398;7.552;2023-04-06T01:16:50;14.45;;;5.32;;
69226;SDS011;56334;52.398;7.552;2023-04-06T01:19:16;15.02;;;5.50;;
69226;SDS011;56334;52.398;7.552;2023-04-06T01:21:42;13.50;;;6.10;;
69226;SDS011;56334;52.398;7.552;2023-04-06T01:24:08;11.40;;;5.18;;
69226;SDS011;56334;52.398;7.552;2023-04-06T01:26:35;14.23;;;5.97;;
69226;SDS011;56334;52.398;7.552;2023-04-06T01:29:01;13.23;;;5.68;;
69226;SDS011;56334;52.398;7.552;2023-04-06T01:31:28;13.80;;;5.80;;
69226;SDS011;56334;52.398;7.552;2023-04-06T01:33:54;14.65;;;5.57;;
69226;SDS011;56334;52.398;7.552;2023-04-06T01:36:20;13.57;;;5.75;;
69226;SDS011;56334;52.398;7.552;2023-04-06T01:38:46;13.68;;;5.00;;
69226;SDS011;56334;52.398;7.552;2023-04-06T01:41:12;13.27;;;5.07;;
69226;SDS011;56334;52.398;7.552;2023-04-06T01:43:38;14.77;;;5.97;;
69226;SDS011;56334;52.398;7.552;2023-04-06T01:46:04;14.43;;;5.72;;
69226;SDS011;56334;52.398;7.552;2023-04-06T01:48:31;18.25;;;6.63;;
69226;SDS011;56334;52.398;7.552;2023-04-06T01:50:57;13.95;;;6.07;;
69226;SDS011;56334;52.398;7.552;2023-04-06T01:53:23;14.82;;;6.80;;
69226;SDS011;56334;52.398;7.552;2023-04-06T01:55:49;17.52;;;6.68;;
69226;SDS011;56334;52.398;7.552;2023-04-06T01:58:15;14.88;;;6.60;;
69226;SDS011;56334;52.398;7.552;2023-04-06T02:00:43;12.68;;;5.60;;
69226;SDS011;56334;52.398;7.552;2023-04-06T02:03:09;12.70;;;5.45;;
69226;SDS011;56334;52.398;7.552;2023-04-06T02:05:35;17.65;;;6.10;;
69226;SDS011;56334;52.398;7.552;2023-04-06T02:08:05;17.77;;;5.78;;
69226;SDS011;56334;52.398;7.552;2023-04-06T02:10:32;13.38;;;5.40;;
69226;SDS011;56334;52.398;7.552;2023-04-06T02:12:58;12.32;;;4.90;;
69226;SDS011;56334;52.398;7.552;2023-04-06T02:15:24;14.60;;;6.00;;
69226;SDS011;56334;52.398;7.552;2023-04-06T02:17:50;15.02;;;6.57;;
69226;SDS011;56334;52.398;7.552;2023-04-06T02:20:16;17.80;;;6.55;;
69226;SDS011;56334;52.398;7.552;2023-04-06T02:22:43;14.48;;;6.03;;
69226;SDS011;56334;52.398;7.552;2023-04-06T02:25:09;15.48;;;6.85;;
69226;SDS011;56334;52.398;7.552;2023-04-06T02:27:35;16.27;;;5.97;;
69226;SDS011;56334;52.398;7.552;2023-04-06T02:30:04;13.93;;;6.40;;
69226;SDS011;56334;52.398;7.552;2023-04-06T02:32:31;17.25;;;6.70;;
69226;SDS011;56334;52.398;7.552;2023-04-06T02:34:57;15.35;;;6.28;;
69226;SDS011;56334;52.398;7.552;2023-04-06T02:37:23;16.10;;;6.47;;
69226;SDS011;56334;52.398;7.552;2023-04-06T02:39:49;13.68;;;6.20;;
69226;SDS011;56334;52.398;7.552;2023-04-06T02:42:17;14.07;;;5.90;;
69226;SDS011;56334;52.398;7.552;2023-04-06T02:44:43;13.85;;;6.25;;
69226;SDS011;56334;52.398;7.552;2023-04-06T02:47:09;16.65;;;6.38;;
69226;SDS011;56334;52.398;7.552;2023-04-06T02:49:35;13.82;;;6.60;;
69226;SDS011;56334;52.398;7.552;2023-04-06T02:52:02;14.02;;;6.15;;
69226;SDS011;56334;52.398;7.552;2023-04-06T02:54:28;13.23;;;6.28;;
69226;SDS011;56334;52.398;7.552;2023-04-06T02:56:54;12.20;;;5.22;;
69226;SDS011;56334;52.398;7.552;2023-04-06T02:59:20;18.13;;;6.55;;
69226;SDS011;56334;52.398;7.552;2023-04-06T03:01:46;15.57;;;6.88;;
69226;SDS011;56334;52.398;7.552;2023-04-06T03:04:12;15.52;;;7.30;;
69226;SDS011;56334;52.398;7.552;2023-04-06T03:06:38;15.55;;;6.63;;
69226;SDS011;56334;52.398;7.552;2023-04-06T03:09:05;17.30;;;6.88;;
69226;SDS011;56334;52.398;7.552;2023-04-06T03:11:31;17.92;;;6.65;;
69226;SDS011;56334;52.398;7.552;2023-04-06T03:13:57;15.63;;;6.80;;
69226;SDS011;56334;52.398;7.552;2023-04-06T03:16:25;14.95;;;6.53;;
69226;SDS011;56334;52.398;7.552;2023-04-06T03:18:51;16.55;;;6.47;;
69226;SDS011;56334;52.398;7.552;2023-04-06T03:21:17;17.15;;;6.95;;
69226;SDS011;56334;52.398;7.552;2023-04-06T03:23:44;16.20;;;6.07;;
69226;SDS011;56334;52.398;7.552;2023-04-06T03:26:10;19.17;;;6.18;;
69226;SDS011;56334;52.398;7.552;2023-04-06T03:28:36;15.55;;;6.97;;
69226;SDS011;56334;52.398;7.552;2023-04-06T03:31:02;13.48;;;5.65;;
69226;SDS011;56334;52.398;7.552;2023-04-06T03:33:28;15.10;;;6.47;;
69226;SDS011;56334;52.398;7.552;2023-04-06T03:35:54;18.23;;;6.57;;
69226;SDS011;56334;52.398;7.552;2023-04-06T03:38:21;14.93;;;6.25;;
69226;SDS011;56334;52.398;7.552;2023-04-06T03:40:47;14.75;;;6.32;;
69226;SDS011;56334;52.398;7.552;2023-04-06T03:43:13;15.93;;;6.03;;
69226;SDS011;56334;52.398;7.552;2023-04-06T03:45:39;16.17;;;6.18;;
69226;SDS011;56334;52.398;7.552;2023-04-06T03:48:05;18.27;;;6.25;;
69226;SDS011;56334;52.398;7.552;2023-04-06T03:50:32;14.32;;;5.82;;
69226;SDS011;56334;52.398;7.552;2023-04-06T03:52:58;15.68;;;6.78;;
69226;SDS011;56334;52.398;7.552;2023-04-06T03:55:26;14.50;;;6.20;;
69226;SDS011;56334;52.398;7.552;2023-04-06T03:57:52;16.85;;;7.07;;
69226;SDS011;56334;52.398;7.552;2023-04-06T04:00:18;19.35;;;6.47;;
69226;SDS011;56334;52.398;7.552;2023-04-06T04:02:44;16.35;;;6.82;;
69226;SDS011;56334;52.398;7.552;2023-04-06T04:05:10;17.58;;;6.85;;
69226;SDS011;56334;52.398;7.552;2023-04-06T04:07:36;16.42;;;6.63;;
69226;SDS011;56334;52.398;7.552;2023-04-06T04:10:03;14.85;;;6.78;;
69226;SDS011;56334;52.398;7.552;2023-04-06T04:12:29;19.65;;;7.25;;
69226;SDS011;56334;52.398;7.552;2023-04-06T04:14:55;17.08;;;7.10;;
69226;SDS011;56334;52.398;7.552;2023-04-06T04:17:22;13.55;;;5.68;;
69226;SDS011;56334;52.398;7.552;2023-04-06T04:19:48;17.40;;;6.70;;
69226;SDS011;56334;52.398;7.552;2023-04-06T04:22:14;14.30;;;6.20;;
69226;SDS011;56334;52.398;7.552;2023-04-06T04:24:40;16.80;;;7.03;;
69226;SDS011;56334;52.398;7.552;2023-04-06T04:27:06;15.63;;;6.88;;
69226;SDS011;56334;52.398;7.552;2023-04-06T04:29:34;15.40;;;6.65;;
69226;SDS011;56334;52.398;7.552;2023-04-06T04:32:01;16.42;;;6.80;;
69226;SDS011;56334;52.398;7.552;2023-04-06T04:34:27;14.75;;;6.22;;
69226;SDS011;56334;52.398;7.552;2023-04-06T04:36:54;14.43;;;6.22;;
69226;SDS011;56334;52.398;7.552;2023-04-06T04:39:20;16.92;;;6.40;;
69226;SDS011;56334;52.398;7.552;2023-04-06T04:41:46;16.20;;;7.43;;
69226;SDS011;56334;52.398;7.552;2023-04-06T04:44:13;14.73;;;6.30;;
69226;SDS011;56334;52.398;7.552;2023-04-06T04:46:39;16.70;;;7.15;;
69226;SDS011;56334;52.398;7.552;2023-04-06T04:49:06;15.52;;;6.80;;
69226;SDS011;56334;52.398;7.552;2023-04-06T04:51:34;16.75;;;7.03;;
69226;SDS011;56334;52.398;7.552;2023-04-06T04:54:01;17.85;;;7.20;;
69226;SDS011;56334;52.398;7.552;2023-04-06T04:56:27;20.52;;;7.45;;
69226;SDS011;56334;52.398;7.552;2023-04-06T04:58:55;15.75;;;6.97;;
69226;SDS011;56334;52.398;7.552;2023-04-06T05:01:21;16.83;;;6.90;;
69226;SDS011;56334;52.398;7.552;2023-04-06T05:03:48;18.17;;;8.60;;
69226;SDS011;56334;52.398;7.552;2023-04-06T05:06:14;19.42;;;9.85;;
69226;SDS011;56334;52.398;7.552;2023-04-06T05:08:41;16.50;;;7.22;;
69226;SDS011;56334;52.398;7.552;2023-04-06T05:11:07;19.40;;;7.47;;
69226;SDS011;56334;52.398;7.552;2023-04-06T05:13:33;14.43;;;6.70;;
69226;SDS011;56334;52.398;7.552;2023-04-06T05:15:59;17.45;;;6.78;;
69226;SDS011;56334;52.398;7.552;2023-04-06T05:18:25;17.40;;;7.13;;
69226;SDS011;56334;52.398;7.552;2023-04-06T05:20:51;18.83;;;8.30;;
69226;SDS011;56334;52.398;7.552;2023-04-06T05:23:17;20.17;;;8.13;;
69226;SDS011;56334;52.398;7.552;2023-04-06T05:25:43;19.58;;;9.73;;
69226;SDS011;56334;52.398;7.552;2023-04-06T05:28:09;20.23;;;8.45;;
69226;SDS011;56334;52.398;7.552;2023-04-06T05:30:39;21.05;;;9.43;;
69226;SDS011;56334;52.398;7.552;2023-04-06T05:33:05;18.85;;;8.57;;
69226;SDS011;56334;52.398;7.552;2023-04-06T05:35:31;16.88;;;6.85;;
69226;SDS011;56334;52.398;7.552;2023-04-06T05:37:58;17.83;;;8.30;;
69226;SDS011;56334;52.398;7.552;2023-04-06T05:40:24;17.40;;;7.97;;
69226;SDS011;56334;52.398;7.552;2023-04-06T05:42:51;18.88;;;8.77;;
69226;SDS011;56334;52.398;7.552;2023-04-06T05:45:17;22.40;;;9.93;;
69226;SDS011;56334;52.398;7.552;2023-04-06T05:47:43;19.00;;;8.73;;
69226;SDS011;56334;52.398;7.552;2023-04-06T05:50:13;19.85;;;8.50;;
69226;SDS011;56334;52.398;7.552;2023-04-06T05:52:39;17.88;;;7.28;;
69226;SDS011;56334;52.398;7.552;2023-04-06T05:55:08;17.15;;;7.50;;
69226;SDS011;56334;52.398;7.552;2023-04-06T05:57:34;13.88;;;6.45;;
69226;SDS011;56334;52.398;7.552;2023-04-06T06:00:00;18.23;;;6.93;;
69226;SDS011;56334;52.398;7.552;2023-04-06T06:02:30;15.85;;;7.85;;
69226;SDS011;56334;52.398;7.552;2023-04-06T06:04:57;18.10;;;7.63;;
69226;SDS011;56334;52.398;7.552;2023-04-06T06:07:23;13.52;;;5.93;;
69226;SDS011;56334;52.398;7.552;2023-04-06T06:09:49;18.35;;;7.82;;
69226;SDS011;56334;52.398;7.552;2023-04-06T06:12:15;18.98;;;7.55;;
69226;SDS011;56334;52.398;7.552;2023-04-06T06:14:41;18.23;;;7.82;;
69226;SDS011;56334;52.398;7.552;2023-04-06T06:17:08;20.40;;;7.78;;
69226;SDS011;56334;52.398;7.552;2023-04-06T06:19:34;16.33;;;7.07;;
69226;SDS011;56334;52.398;7.552;2023-04-06T06:22:00;14.70;;;6.65;;
69226;SDS011;56334;52.398;7.552;2023-04-06T06:24:28;14.70;;;6.40;;
69226;SDS011;56334;52.398;7.552;2023-04-06T06:26:54;15.15;;;6.68;;
69226;SDS011;56334;52.398;7.552;2023-04-06T06:29:21;15.10;;;6.75;;
69226;SDS011;56334;52.398;7.552;2023-04-06T06:31:48;16.60;;;7.45;;
69226;SDS011;56334;52.398;7.552;2023-04-06T06:34:14;15.57;;;7.30;;
69226;SDS011;56334;52.398;7.552;2023-04-06T06:36:40;16.35;;;6.80;;
69226;SDS011;56334;52.398;7.552;2023-04-06T06:39:06;19.02;;;7.97;;
69226;SDS011;56334;52.398;7.552;2023-04-06T06:41:33;15.50;;;6.57;;
69226;SDS011;56334;52.398;7.552;2023-04-06T06:43:59;18.63;;;8.05;;
69226;SDS011;56334;52.398;7.552;2023-04-06T06:46:25;15.27;;;6.43;;
69226;SDS011;56334;52.398;7.552;2023-04-06T06:48:51;15.00;;;6.65;;
69226;SDS011;56334;52.398;7.552;2023-04-06T06:51:17;17.98;;;7.18;;
69226;SDS011;56334;52.398;7.552;2023-04-06T06:53:43;15.00;;;6.78;;
69226;SDS011;56334;52.398;7.552;2023-04-06T06:56:09;16.70;;;7.10;;
69226;SDS011;56334;52.398;7.552;2023-04-06T06:58:35;19.45;;;7.70;;
69226;SDS011;56334;52.398;7.552;2023-04-06T07:01:01;17.35;;;7.90;;
69226;SDS011;56334;52.398;7.552;2023-04-06T07:03:29;17.73;;;7.75;;
69226;SDS011;56334;52.398;7.552;2023-04-06T07:05:55;17.98;;;7.85;;
69226;SDS011;56334;52.398;7.552;2023-04-06T07:08:23;17.83;;;7.63;;
69226;SDS011;56334;52.398;7.552;2023-04-06T07:13:21;17.67;;;7.22;;
69226;SDS011;56334;52.398;7.552;2023-04-06T07:15:48;16.85;;;7.65;;
69226;SDS011;56334;52.398;7.552;2023-04-06T07:18:16;21.10;;;8.48;;
69226;SDS011;56334;52.398;7.552;2023-04-06T07:20:44;18.15;;;8.15;;
69226;SDS011;56334;52.398;7.552;2023-04-06T07:23:10;16.95;;;7.85;;
69226;SDS011;56334;52.398;7.552;2023-04-06T07:25:36;19.42;;;7.78;;
69226;SDS011;56334;52.398;7.552;2023-04-06T07:28:03;20.10;;;7.37;;
69226;SDS011;56334;52.398;7.552;2023-04-06T07:30:29;18.63;;;8.07;;
69226;SDS011;56334;52.398;7.552;2023-04-06T07:32:55;18.13;;;7.97;;
69226;SDS011;56334;52.398;7.552;2023-04-06T07:35:25;19.25;;;8.07;;
69226;SDS011;56334;52.398;7.552;2023-04-06T07:37:53;17.50;;;7.97;;
69226;SDS011;56334;52.398;7.552;2023-04-06T07:40:19;16.23;;;7.60;;
69226;SDS011;56334;52.398;7.552;2023-04-06T07:42:46;25.10;;;8.55;;
69226;SDS011;56334;52.398;7.552;2023-04-06T07:45:12;19.42;;;7.53;;
69226;SDS011;56334;52.398;7.552;2023-04-06T07:47:38;20.83;;;7.60;;
69226;SDS011;56334;52.398;7.552;2023-04-06T07:50:04;14.98;;;7.20;;
69226;SDS011;56334;52.398;7.552;2023-04-06T07:52:30;16.13;;;6.82;;
69226;SDS011;56334;52.398;7.552;2023-04-06T07:54:59;18.83;;;8.07;;
69226;SDS011;56334;52.398;7.552;2023-04-06T07:57:25;17.42;;;7.80;;
69226;SDS011;56334;52.398;7.552;2023-04-06T07:59:51;30.13;;;8.27;;
69226;SDS011;56334;52.398;7.552;2023-04-06T08:02:18;16.10;;;7.35;;
69226;SDS011;56334;52.398;7.552;2023-04-06T08:04:44;18.05;;;7.55;;
69226;SDS011;56334;52.398;7.552;2023-04-06T08:07:10;16.75;;;7.53;;
69226;SDS011;56334;52.398;7.552;2023-04-06T08:09:37;17.58;;;7.65;;
69226;SDS011;56334;52.398;7.552;2023-04-06T08:12:03;15.63;;;7.28;;
69226;SDS011;56334;52.398;7.552;2023-04-06T08:14:29;18.85;;;7.57;;
69226;SDS011;56334;52.398;7.552;2023-04-06T08:16:55;18.92;;;8.50;;
69226;SDS011;56334;52.398;7.552;2023-04-06T08:19:21;19.73;;;8.48;;
69226;SDS011;56334;52.398;7.552;2023-04-06T08:21:48;18.77;;;8.68;;
69226;SDS011;56334;52.398;7.552;2023-04-06T08:24:14;18.35;;;7.47;;
69226;SDS011;56334;52.398;7.552;2023-04-06T08:26:40;17.65;;;8.48;;
69226;SDS011;56334;52.398;7.552;2023-04-06T08:29:06;16.35;;;8.02;;
69226;SDS011;56334;52.398;7.552;2023-04-06T08:31:34;16.67;;;7.82;;
69226;SDS011;56334;52.398;7.552;2023-04-06T08:34:03;23.55;;;8.63;;
69226;SDS011;56334;52.398;7.552;2023-04-06T08:38:56;17.73;;;7.68;;
69226;SDS011;56334;52.398;7.552;2023-04-06T08:41:23;17.42;;;8.40;;
69226;SDS011;56334;52.398;7.552;2023-04-06T08:43:54;17.90;;;8.20;;
69226;SDS011;56334;52.398;7.552;2023-04-06T08:46:22;19.52;;;8.27;;
69226;SDS011;56334;52.398;7.552;2023-04-06T08:48:54;19.10;;;9.15;;
69226;SDS011;56334;52.398;7.552;2023-04-06T08:51:23;18.48;;;8.10;;
69226;SDS011;56334;52.398;7.552;2023-04-06T08:53:53;19.17;;;8.52;;
69226;SDS011;56334;52.398;7.552;2023-04-06T08:56:21;19.65;;;7.68;;
69226;SDS011;56334;52.398;7.552;2023-04-06T08:58:47;20.00;;;8.07;;
69226;SDS011;56334;52.398;7.552;2023-04-06T09:01:14;18.23;;;8.27;;
69226;SDS011;56334;52.398;7.552;2023-04-06T09:03:40;19.92;;;8.75;;
69226;SDS011;56334;52.398;7.552;2023-04-06T09:06:08;19.20;;;9.55;;
69226;SDS011;56334;52.398;7.552;2023-04-06T09:08:34;19.90;;;8.68;;
69226;SDS011;56334;52.398;7.552;2023-04-06T09:11:01;22.17;;;8.88;;
69226;SDS011;56334;52.398;7.552;2023-04-06T09:13:27;19.23;;;8.77;;
69226;SDS011;56334;52.398;7.552;2023-04-06T09:18:30;18.15;;;8.65;;
69226;SDS011;56334;52.398;7.552;2023-04-06T09:21:06;18.30;;;8.23;;
69226;SDS011;56334;52.398;7.552;2023-04-06T09:23:32;17.70;;;8.27;;
69226;SDS011;56334;52.398;7.552;2023-04-06T09:26:05;17.83;;;8.20;;
69226;SDS011;56334;52.398;7.552;2023-04-06T09:28:41;16.65;;;8.20;;
69226;SDS011;56334;52.398;7.552;2023-04-06T09:31:07;18.42;;;7.88;;
69226;SDS011;56334;52.398;7.552;2023-04-06T09:33:37;18.33;;;8.60;;
69226;SDS011;56334;52.398;7.552;2023-04-06T09:36:03;20.45;;;8.32;;
69226;SDS011;56334;52.398;7.552;2023-04-06T09:38:30;17.10;;;8.40;;
69226;SDS011;56334;52.398;7.552;2023-04-06T09:40:56;17.10;;;8.00;;
69226;SDS011;56334;52.398;7.552;2023-04-06T09:43:28;17.58;;;8.55;;
69226;SDS011;56334;52.398;7.552;2023-04-06T09:45:58;19.30;;;9.07;;
69226;SDS011;56334;52.398;7.552;2023-04-06T09:48:27;19.08;;;8.63;;
69226;SDS011;56334;52.398;7.552;2023-04-06T09:50:59;18.85;;;8.88;;
69226;SDS011;56334;52.398;7.552;2023-04-06T09:53:29;19.90;;;9.07;;
69226;SDS011;56334;52.398;7.552;2023-04-06T09:55:57;18.10;;;9.18;;
69226;SDS011;56334;52.398;7.552;2023-04-06T09:58:25;19.38;;;8.77;;
69226;SDS011;56334;52.398;7.552;2023-04-06T10:01:00;20.83;;;10.00;;
69226;SDS011;56334;52.398;7.552;2023-04-06T10:06:06;21.85;;;10.38;;
69226;SDS011;56334;52.398;7.552;2023-04-06T10:08:34;20.30;;;10.48;;
69226;SDS011;56334;52.398;7.552;2023-04-06T10:11:02;23.27;;;10.13;;
69226;SDS011;56334;52.398;7.552;2023-04-06T10:13:28;18.77;;;10.05;;
69226;SDS011;56334;52.398;7.552;2023-04-06T10:15:57;21.33;;;11.45;;
69226;SDS011;56334;52.398;7.552;2023-04-06T10:18:23;20.35;;;11.23;;
69226;SDS011;56334;52.398;7.552;2023-04-06T10:20:55;22.58;;;10.88;;
69226;SDS011;56334;52.398;7.552;2023-04-06T10:23:24;20.17;;;10.57;;
69226;SDS011;56334;52.398;7.552;2023-04-06T10:28:19;21.33;;;10.98;;
69226;SDS011;56334;52.398;7.552;2023-04-06T10:30:46;24.10;;;11.80;;
69226;SDS011;56334;52.398;7.552;2023-04-06T10:33:16;22.73;;;12.27;;
69226;SDS011;56334;52.398;7.552;2023-04-06T10:35:42;23.33;;;10.88;;
69226;SDS011;56334;52.398;7.552;2023-04-06T10:38:09;20.80;;;10.75;;
69226;SDS011;56334;52.398;7.552;2023-04-06T10:40:45;24.60;;;12.02;;
69226;SDS011;56334;52.398;7.552;2023-04-06T10:43:22;23.83;;;11.93;;
69226;SDS011;56334;52.398;7.552;2023-04-06T10:45:57;22.40;;;11.23;;
69226;SDS011;56334;52.398;7.552;2023-04-06T10:48:35;21.48;;;11.13;;
69226;SDS011;56334;52.398;7.552;2023-04-06T10:51:06;19.98;;;10.90;;
69226;SDS011;56334;52.398;7.552;2023-04-06T10:53:33;20.73;;;11.10;;
69226;SDS011;56334;52.398;7.552;2023-04-06T10:55:59;20.58;;;10.80;;
69226;SDS011;56334;52.398;7.552;2023-04-06T10:58:27;21.45;;;11.73;;
69226;SDS011;56334;52.398;7.552;2023-04-06T11:00:53;23.48;;;12.27;;
69226;SDS011;56334;52.398;7.552;2023-04-06T11:03:21;21.90;;;12.30;;
69226;SDS011;56334;52.398;7.552;2023-04-06T11:05:48;22.08;;;11.55;;
69226;SDS011;56334;52.398;7.552;2023-04-06T11:10:41;21.80;;;11.60;;
69226;SDS011;56334;52.398;7.552;2023-04-06T11:13:07;23.55;;;12.20;;
69226;SDS011;56334;52.398;7.552;2023-04-06T11:15:34;25.33;;;11.77;;
69226;SDS011;56334;52.398;7.552;2023-04-06T11:18:03;23.92;;;11.82;;
69226;SDS011;56334;52.398;7.552;2023-04-06T11:23:00;26.42;;;12.02;;
69226;SDS011;56334;52.398;7.552;2023-04-06T11:25:26;21.55;;;12.18;;
69226;SDS011;56334;52.398;7.552;2023-04-06T11:27:54;23.02;;;12.52;;
69226;SDS011;56334;52.398;7.552;2023-04-06T11:30:21;22.40;;;11.52;;
69226;SDS011;56334;52.398;7.552;2023-04-06T11:32:48;23.27;;;11.75;;
69226;SDS011;56334;52.398;7.552;2023-04-06T11:35:21;22.67;;;11.68;;
69226;SDS011;56334;52.398;7.552;2023-04-06T11:37:52;21.48;;;10.85;;
69226;SDS011;56334;52.398;7.552;2023-04-06T11:40:22;21.85;;;11.48;;
69226;SDS011;56334;52.398;7.552;2023-04-06T11:42:54;22.52;;;10.65;;
69226;SDS011;56334;52.398;7.552;2023-04-06T11:45:21;22.23;;;10.55;;
69226;SDS011;56334;52.398;7.552;2023-04-06T11:47:55;20.98;;;10.98;;
69226;SDS011;56334;52.398;7.552;2023-04-06T11:50:22;23.33;;;11.57;;
69226;SDS011;56334;52.398;7.552;2023-04-06T11:52:48;23.50;;;11.10;;
69226;SDS011;56334;52.398;7.552;2023-04-06T11:55:23;23.52;;;12.02;;
69226;SDS011;56334;52.398;7.552;2023-04-06T11:57:49;21.73;;;11.68;;
69226;SDS011;56334;52.398;7.552;2023-04-06T12:00:16;22.83;;;11.10;;
69226;SDS011;56334;52.398;7.552;2023-04-06T12:02:45;20.67;;;10.85;;
69226;SDS011;56334;52.398;7.552;2023-04-06T12:05:25;22.63;;;11.75;;
69226;SDS011;56334;52.398;7.552;2023-04-06T12:07:51;21.83;;;11.23;;
69226;SDS011;56334;52.398;7.552;2023-04-06T12:10:21;21.65;;;10.75;;
69226;SDS011;56334;52.398;7.552;2023-04-06T12:12:48;23.75;;;11.63;;
69226;SDS011;56334;52.398;7.552;2023-04-06T12:15:24;24.70;;;10.73;;
69226;SDS011;56334;52.398;7.552;2023-04-06T12:17:50;21.63;;;10.70;;
69226;SDS011;56334;52.398;7.552;2023-04-06T12:20:19;23.27;;;11.15;;
69226;SDS011;56334;52.398;7.552;2023-04-06T12:22:45;22.48;;;11.23;;
69226;SDS011;56334;52.398;7.552;2023-04-06T12:25:26;24.00;;;11.82;;
69226;SDS011;56334;52.398;7.552;2023-04-06T12:27:54;22.92;;;10.85;;
69226;SDS011;56334;52.398;7.552;2023-04-06T12:30:22;19.95;;;10.25;;
69226;SDS011;56334;52.398;7.552;2023-04-06T12:35:13;23.30;;;11.00;;
69226;SDS011;56334;52.398;7.552;2023-04-06T12:37:40;24.02;;;11.23;;
69226;SDS011;56334;52.398;7.552;2023-04-06T12:40:07;20.35;;;9.95;;
69226;SDS011;56334;52.398;7.552;2023-04-06T12:42:35;20.92;;;10.52;;
69226;SDS011;56334;52.398;7.552;2023-04-06T12:45:01;20.45;;;10.02;;
69226;SDS011;56334;52.398;7.552;2023-04-06T12:47:29;26.13;;;11.98;;
69226;SDS011;56334;52.398;7.552;2023-04-06T12:49:55;24.98;;;11.38;;
69226;SDS011;56334;52.398;7.552;2023-04-06T12:52:21;22.63;;;11.30;;
69226;SDS011;56334;52.398;7.552;2023-04-06T12:57:38;22.05;;;10.88;;
69226;SDS011;56334;52.398;7.552;2023-04-06T13:00:05;21.83;;;10.60;;
69226;SDS011;56334;52.398;7.552;2023-04-06T13:02:32;22.73;;;10.98;;
69226;SDS011;56334;52.398;7.552;2023-04-06T13:05:00;19.80;;;10.27;;
69226;SDS011;56334;52.398;7.552;2023-04-06T13:07:26;21.40;;;10.07;;
69226;SDS011;56334;52.398;7.552;2023-04-06T13:09:52;22.58;;;10.63;;
69226;SDS011;56334;52.398;7.552;2023-04-06T13:12:18;22.42;;;11.30;;
69226;SDS011;56334;52.398;7.552;2023-04-06T13:14:46;22.38;;;10.45;;
69226;SDS011;56334;52.398;7.552;2023-04-06T13:17:16;22.83;;;11.52;;
69226;SDS011;56334;52.398;7.552;2023-04-06T13:19:42;22.08;;;10.90;;
69226;SDS011;56334;52.398;7.552;2023-04-06T13:22:08;21.75;;;11.00;;
69226;SDS011;56334;52.398;7.552;2023-04-06T13:24:37;23.85;;;11.10;;
69226;SDS011;56334;52.398;7.552;2023-04-06T13:27:06;25.13;;;11.77;;
69226;SDS011;56334;52.398;7.552;2023-04-06T13:29:32;23.02;;;10.98;;
69226;SDS011;56334;52.398;7.552;2023-04-06T13:34:53;23.92;;;11.07;;
69226;SDS011;56334;52.398;7.552;2023-04-06T13:37:20;35.25;;;11.60;;
69226;SDS011;56334;52.398;7.552;2023-04-06T13:39:46;23.48;;;11.68;;
69226;SDS011;56334;52.398;7.552;2023-04-06T13:42:12;24.38;;;11.40;;
69226;SDS011;56334;52.398;7.552;2023-04-06T13:44:38;28.80;;;12.02;;
69226;SDS011;56334;52.398;7.552;2023-04-06T13:47:04;28.00;;;11.57;;
69226;SDS011;56334;52.398;7.552;2023-04-06T13:49:32;21.48;;;10.30;;
69226;SDS011;56334;52.398;7.552;2023-04-06T13:51:58;26.58;;;11.57;;
69226;SDS011;56334;52.398;7.552;2023-04-06T13:54:25;21.88;;;10.85;;
69226;SDS011;56334;52.398;7.552;2023-04-06T13:56:52;24.10;;;11.35;;
69226;SDS011;56334;52.398;7.552;2023-04-06T13:59:18;24.50;;;11.65;;
69226;SDS011;56334;52.398;7.552;2023-04-06T14:01:44;23.90;;;11.30;;
69226;SDS011;56334;52.398;7.552;2023-04-06T14:04:10;23.30;;;11.27;;
69226;SDS011;56334;52.398;7.552;2023-04-06T14:06:37;22.20;;;10.02;;
69226;SDS011;56334;52.398;7.552;2023-04-06T14:09:03;25.27;;;11.40;;
69226;SDS011;56334;52.398;7.552;2023-04-06T14:11:30;25.75;;;10.93;;
69226;SDS011;56334;52.398;7.552;2023-04-06T14:13:56;23.52;;;11.55;;
69226;SDS011;56334;52.398;7.552;2023-04-06T14:16:23;23.35;;;11.38;;
69226;SDS011;56334;52.398;7.552;2023-04-06T14:18:51;23.77;;;11.00;;
69226;SDS011;56334;52.398;7.552;2023-04-06T14:21:17;22.15;;;10.40;;
69226;SDS011;56334;52.398;7.552;2023-04-06T14:23:43;22.33;;;10.20;;
69226;SDS011;56334;52.398;7.552;2023-04-06T14:26:11;23.20;;;10.57;;
69226;SDS011;56334;52.398;7.552;2023-04-06T14:28:37;24.70;;;10.85;;
69226;SDS011;56334;52.398;7.552;2023-04-06T14:31:09;23.98;;;10.80;;
69226;SDS011;56334;52.398;7.552;2023-04-06T14:33:36;23.77;;;10.90;;
69226;SDS011;56334;52.398;7.552;2023-04-06T14:36:02;22.45;;;10.52;;
69226;SDS011;56334;52.398;7.552;2023-04-06T14:38:29;21.98;;;10.75;;
69226;SDS011;56334;52.398;7.552;2023-04-06T14:43:21;23.92;;;11.05;;
69226;SDS011;56334;52.398;7.552;2023-04-06T14:45:48;23.42;;;10.82;;
69226;SDS011;56334;52.398;7.552;2023-04-06T14:48:14;20.77;;;9.65;;
69226;SDS011;56334;52.398;7.552;2023-04-06T14:50:42;22.00;;;9.80;;
69226;SDS011;56334;52.398;7.552;2023-04-06T14:53:18;24.52;;;10.77;;
69226;SDS011;56334;52.398;7.552;2023-04-06T14:55:44;23.70;;;11.13;;
69226;SDS011;56334;52.398;7.552;2023-04-06T14:58:10;22.95;;;11.05;;